createdAt,value
2022-10-02T00:01:49.263Z,96864.06
2022-10-02T00:04:24.459Z,96861.84
2022-10-02T00:06:55.943Z,96881.44
2022-10-02T00:09:32.966Z,96871.19
2022-10-02T00:12:05.307Z,96879.28
2022-10-02T00:14:39.410Z,96872.22
2022-10-02T00:17:14.519Z,96868.91
2022-10-02T00:19:42.662Z,96855.44
2022-10-02T00:22:37.426Z,96849.44
2022-10-02T00:25:14.975Z,96858.53
2022-10-02T00:28:05.115Z,96864.19
2022-10-02T00:30:45.462Z,96867.22
2022-10-02T00:33:25.438Z,96881.34
2022-10-02T00:36:12.874Z,96888.13
2022-10-02T00:38:53.792Z,96882.38
2022-10-02T00:42:09.957Z,96887.22
2022-10-02T00:44:58.602Z,96886.75
2022-10-02T00:47:44.585Z,96872.50
2022-10-02T00:50:32.955Z,96884.59
2022-10-02T00:53:15.572Z,96894.78
2022-10-02T00:55:58.086Z,96893.09
2022-10-02T00:58:45.428Z,96892.06
2022-10-02T01:01:19.576Z,96907.94
2022-10-02T01:03:56.349Z,96903.56
2022-10-02T01:06:29.099Z,96898.38
2022-10-02T01:08:57.393Z,96900.69
2022-10-02T01:11:27.069Z,96903.03
2022-10-02T01:13:55.249Z,96903.34
2022-10-02T01:16:23.653Z,96905.28
2022-10-02T01:18:53.244Z,96896.34
2022-10-02T01:21:30.425Z,96890.44
2022-10-02T01:24:04.095Z,96898.63
2022-10-02T01:26:34.047Z,96891.94
2022-10-02T01:29:02.429Z,96882.16
2022-10-02T01:31:32.057Z,96876.53
2022-10-02T01:34:00.694Z,96886.69
2022-10-02T01:36:29.638Z,96884.47
2022-10-02T01:38:58.890Z,96873.22
2022-10-02T01:41:27.147Z,96874.47
2022-10-02T01:43:59.790Z,96887.84
2022-10-02T01:46:36.334Z,96889.91
2022-10-02T01:49:40.933Z,96894.75
2022-10-02T01:52:21.259Z,96901.53
2022-10-02T01:55:09.540Z,96892.69
2022-10-02T01:57:57.472Z,96898.66
2022-10-02T02:00:28.098Z,96897.63
2022-10-02T02:03:09.366Z,96895.69
2022-10-02T02:05:48.899Z,96884.72
2022-10-02T02:08:28.816Z,96890.41
2022-10-02T02:11:11.550Z,96898.13
2022-10-02T02:13:49.473Z,96904.31
2022-10-02T02:16:26.939Z,96902.59
2022-10-02T02:19:03.921Z,96911.91
2022-10-02T02:21:38.600Z,96911.81
2022-10-02T02:24:15.282Z,96892.78
2022-10-02T02:26:47.018Z,96890.28
2022-10-02T02:29:17.873Z,96904.09
2022-10-02T02:31:52.696Z,96888.19
2022-10-02T02:34:29.026Z,96889.81
2022-10-02T02:37:03.548Z,96891.66
2022-10-02T02:39:37.868Z,96888.63
2022-10-02T02:42:13.617Z,96892.13
2022-10-02T02:44:49.946Z,96898.22
2022-10-02T02:47:23.665Z,96890.50
2022-10-02T02:49:58.094Z,96894.31
2022-10-02T02:52:31.094Z,96894.09
2022-10-02T02:55:06.219Z,96899.97
2022-10-02T02:57:41.835Z,96912.25
2022-10-02T03:00:13.270Z,96907.91
2022-10-02T03:02:42.756Z,96910.78
2022-10-02T03:05:16.193Z,96915.63
2022-10-02T03:07:51.884Z,96910.78
2022-10-02T03:10:32.030Z,96911.59
2022-10-02T03:13:16.766Z,96913.31
2022-10-02T03:15:59.643Z,96914.38
2022-10-02T03:18:58.142Z,96913.81
2022-10-02T03:21:36.253Z,96909.66
2022-10-02T03:24:13.765Z,96909.28
2022-10-02T03:26:48.561Z,96918.31
2022-10-02T03:29:26.339Z,96913.59
2022-10-02T03:31:56.114Z,96900.66
2022-10-02T03:34:26.300Z,96908.03
2022-10-02T03:36:55.071Z,96904.81
2022-10-02T03:39:25.729Z,96901.00
2022-10-02T03:41:54.790Z,96901.34
2022-10-02T03:44:22.918Z,96899.97
2022-10-02T03:46:51.856Z,96901.00
2022-10-02T03:49:19.960Z,96901.22
2022-10-02T03:51:49.368Z,96904.44
2022-10-02T03:54:21.237Z,96906.88
2022-10-02T03:56:56.623Z,96909.38
2022-10-02T03:59:43.898Z,96909.38
2022-10-02T04:02:24.292Z,96909.38
2022-10-02T04:04:57.604Z,96913.81
2022-10-02T04:07:33.447Z,96909.38
2022-10-02T04:10:21.026Z,96911.47
2022-10-02T04:12:52.809Z,96903.88
2022-10-02T04:15:26.677Z,96906.63
2022-10-02T04:18:01.737Z,96914.44
2022-10-02T04:20:37.292Z,96907.78
2022-10-02T04:23:18.602Z,96906.25
2022-10-02T04:25:51.710Z,96903.69
2022-10-02T04:28:27.488Z,96903.53
2022-10-02T04:30:56.354Z,96908.56
2022-10-02T04:33:26.574Z,96916.78
2022-10-02T04:36:08.760Z,96910.22
2022-10-02T04:39:00.276Z,96910.44
2022-10-02T04:41:48.627Z,96905.00
2022-10-02T04:44:35.993Z,96901.75
2022-10-02T04:47:43.975Z,96897.34
2022-10-02T04:50:32.620Z,96899.00
2022-10-02T04:53:18.662Z,96892.78
2022-10-02T04:56:30.475Z,96888.97
2022-10-02T04:59:20.278Z,96887.47
2022-10-02T05:02:07.847Z,96887.84
2022-10-02T05:05:04.200Z,96886.22
2022-10-02T05:07:56.107Z,96887.63
2022-10-02T05:10:51.667Z,96880.03
2022-10-02T05:13:43.266Z,96877.59
2022-10-02T05:16:37.259Z,96879.81
2022-10-02T05:19:29.671Z,96876.00
2022-10-02T05:22:19.928Z,96880.91
2022-10-02T05:25:05.498Z,96880.91
2022-10-02T05:27:51.185Z,96886.00
2022-10-02T05:30:21.698Z,96893.16
2022-10-02T05:33:39.222Z,96898.66
2022-10-02T05:36:37.794Z,96902.59
2022-10-02T05:39:09.976Z,96905.00
2022-10-02T05:41:56.180Z,96899.47
2022-10-02T05:44:35.739Z,96903.53
2022-10-02T05:47:13.540Z,96906.28
2022-10-02T05:49:49.466Z,96901.00
2022-10-02T05:52:22.039Z,96902.47
2022-10-02T05:54:57.045Z,96916.66
2022-10-02T05:57:34.286Z,96912.63
2022-10-02T06:00:17.840Z,96909.50
2022-10-02T06:02:54.344Z,96921.16
2022-10-02T06:05:30.585Z,96924.47
2022-10-02T06:08:03.370Z,96921.69
2022-10-02T06:10:38.538Z,96920.31
2022-10-02T06:13:14.126Z,96923.66
2022-10-02T06:15:50.355Z,96908.13
2022-10-02T06:18:23.614Z,96906.53
2022-10-02T06:20:56.773Z,96908.94
2022-10-02T06:23:32.277Z,96901.44
2022-10-02T06:26:04.474Z,96893.50
2022-10-02T06:28:39.896Z,96893.63
2022-10-02T06:31:16.966Z,96890.41
2022-10-02T06:33:47.042Z,96875.63
2022-10-02T06:36:59.417Z,96885.66
2022-10-02T06:39:49.102Z,96872.31
2022-10-02T06:42:35.137Z,96860.88
2022-10-02T06:45:11.912Z,96862.97
2022-10-02T06:48:05.406Z,96865.63
2022-10-02T06:50:54.113Z,96867.44
2022-10-02T06:53:50.878Z,96875.19
2022-10-02T06:56:43.463Z,96880.03
2022-10-02T06:59:28.617Z,96890.41
2022-10-02T07:02:06.401Z,96885.31
2022-10-02T07:04:50.380Z,96891.56
2022-10-02T07:07:38.968Z,96884.28
2022-10-02T07:10:29.205Z,96876.78
2022-10-02T07:13:27.131Z,96860.88
2022-10-02T07:16:37.135Z,96863.09
2022-10-02T07:19:33.170Z,96860.44
2022-10-02T07:22:39.589Z,96851.72
2022-10-02T07:25:40.920Z,96843.28
2022-10-02T07:28:19.338Z,96847.09
2022-10-02T07:30:59.442Z,96850.78
2022-10-02T07:33:44.832Z,96851.13
2022-10-02T07:36:18.580Z,96853.22
2022-10-02T07:39:04.194Z,96844.00
2022-10-02T07:42:06.114Z,96839.97
2022-10-02T07:45:27.784Z,96849.75
2022-10-02T07:48:26.474Z,96837.09
2022-10-02T07:51:27.611Z,96847.25
2022-10-02T07:54:09.768Z,96841.94
2022-10-02T07:56:40.204Z,96849.88
2022-10-02T07:59:16.376Z,96841.00
2022-10-02T08:01:47.473Z,96838.38
2022-10-02T08:04:20.169Z,96842.16
2022-10-02T08:06:52.290Z,96835.81
2022-10-02T08:09:29.083Z,96832.03
2022-10-02T08:12:04.612Z,96842.53
2022-10-02T08:14:39.784Z,96839.63
2022-10-02T08:17:27.473Z,96838.63
2022-10-02T08:20:03.160Z,96839.19
2022-10-02T08:22:38.456Z,96839.56
2022-10-02T08:25:20.717Z,96833.19
2022-10-02T08:27:59.648Z,96841.84
2022-10-02T08:30:27.816Z,96834.47
2022-10-02T08:32:56.361Z,96827.88
2022-10-02T08:35:41.028Z,96829.84
2022-10-02T08:38:31.599Z,96826.97
2022-10-02T08:41:54.752Z,96832.41
2022-10-02T08:45:42.318Z,96820.31
2022-10-02T08:48:55.505Z,96810.41
2022-10-02T08:52:04.593Z,96818.47
2022-10-02T08:55:18.477Z,96808.31
2022-10-02T08:58:30.755Z,96795.38
2022-10-02T09:01:22.823Z,96797.56
2022-10-02T09:05:09.864Z,96793.72
2022-10-02T09:08:19.583Z,96794.63
2022-10-02T09:11:38.123Z,96796.59
2022-10-02T09:14:48.970Z,96786.53
2022-10-02T09:17:49.889Z,96784.81
2022-10-02T09:20:43.061Z,96788.81
2022-10-02T09:24:17.061Z,96787.06
2022-10-02T09:27:11.677Z,96784.53
2022-10-02T09:30:20.182Z,96783.25
2022-10-02T09:33:41.294Z,96787.28
2022-10-02T09:37:28.280Z,96783.91
2022-10-02T09:40:51.616Z,96779.16
2022-10-02T09:44:15.659Z,96779.03
2022-10-02T09:47:23.969Z,96792.38
2022-10-02T09:50:42.095Z,96789.84
2022-10-02T09:54:03.548Z,96789.47
2022-10-02T09:57:32.723Z,96788.13
2022-10-02T10:00:24.229Z,96787.63
2022-10-02T10:03:46.441Z,96807.03
2022-10-02T10:06:53.481Z,96802.66
2022-10-02T10:09:50.467Z,96797.91
2022-10-02T10:13:17.584Z,96807.06
2022-10-02T10:16:22.101Z,96803.50
2022-10-02T10:19:42.057Z,96813.53
2022-10-02T10:23:01.056Z,96807.69
2022-10-02T10:25:51.696Z,96790.00
2022-10-02T10:29:07.609Z,96791.47
2022-10-02T10:32:32.369Z,96792.22
2022-10-02T10:35:40.200Z,96794.28
2022-10-02T10:38:38.756Z,96802.84
2022-10-02T10:41:50.093Z,96804.28
2022-10-02T10:45:22.860Z,96815.25
2022-10-02T10:48:12.365Z,96829.91
2022-10-02T10:50:55.481Z,96808.91
2022-10-02T10:54:02.138Z,96811.88
2022-10-02T10:56:47.210Z,96809.22
2022-10-02T11:00:13.518Z,96822.63
2022-10-02T11:02:56.847Z,96825.38
2022-10-02T11:06:05.198Z,96830.38
2022-10-02T11:09:06.477Z,96825.22
2022-10-02T11:11:48.159Z,96831.66
2022-10-02T11:14:36.392Z,96836.97
2022-10-02T11:17:41.436Z,96835.69
2022-10-02T11:20:36.817Z,96826.19
2022-10-02T11:23:45.436Z,96833.84
2022-10-02T11:26:44.628Z,96829.00
2022-10-02T11:29:49.329Z,96817.25
2022-10-02T11:32:54.172Z,96826.34
2022-10-02T11:35:25.207Z,96820.00
2022-10-02T11:38:24.582Z,96818.84
2022-10-02T11:41:15.837Z,96825.69
2022-10-02T11:44:09.412Z,96838.41
2022-10-02T11:47:34.755Z,96843.50
2022-10-02T11:50:43.401Z,96833.47
2022-10-02T11:53:34.402Z,96843.81
2022-10-02T11:56:29.283Z,96834.75
2022-10-02T11:59:23.037Z,96830.03
2022-10-02T12:02:03.915Z,96831.00
2022-10-02T12:04:49.391Z,96819.09
2022-10-02T12:07:33.231Z,96819.91
2022-10-02T12:10:23.361Z,96817.69
2022-10-02T12:13:09.814Z,96832.25
2022-10-02T12:15:50.814Z,96832.78
2022-10-02T12:18:39.299Z,96827.72
2022-10-02T12:21:48.659Z,96829.81
2022-10-02T12:24:54.980Z,96836.03
2022-10-02T12:27:42.658Z,96839.50
2022-10-02T12:30:15.895Z,96841.34
2022-10-02T12:33:10.936Z,96832.94
2022-10-02T12:36:05.347Z,96831.88
2022-10-02T12:38:52.257Z,96830.03
2022-10-02T12:41:52.241Z,96841.72
2022-10-02T12:44:59.034Z,96842.19
2022-10-02T12:48:00.194Z,96854.09
2022-10-02T12:50:53.070Z,96863.28
2022-10-02T12:54:09.997Z,96860.09
2022-10-02T12:57:39.156Z,96858.34
2022-10-02T13:00:15.439Z,96858.94
2022-10-02T13:03:32.528Z,96849.25
2022-10-02T13:06:51.184Z,96856.97
2022-10-02T13:09:33.620Z,96864.59
2022-10-02T13:12:27.896Z,96856.63
2022-10-02T13:15:33.741Z,96847.84
2022-10-02T13:18:25.299Z,96852.81
2022-10-02T13:21:04.128Z,96850.38
2022-10-02T13:23:42.093Z,96857.88
2022-10-02T13:26:21.157Z,96862.06
2022-10-02T13:29:34.552Z,96859.84
2022-10-02T13:32:31.903Z,96842.09
2022-10-02T13:35:22.771Z,96849.81
2022-10-02T13:38:06.743Z,96849.94
2022-10-02T13:40:45.640Z,96847.63
2022-10-02T13:43:45.010Z,96838.03
2022-10-02T13:46:27.051Z,96855.59
2022-10-02T13:49:09.474Z,96854.78
2022-10-02T13:51:51.075Z,96866.44
2022-10-02T13:55:05.552Z,96854.31
2022-10-02T13:57:54.459Z,96864.34
2022-10-02T14:01:12.052Z,96860.31
2022-10-02T14:04:10.878Z,96854.19
2022-10-02T14:06:46.904Z,96844.03
2022-10-02T14:09:45.544Z,96855.59
2022-10-02T14:12:28.631Z,96859.03
2022-10-02T14:15:27.038Z,96857.41
2022-10-02T14:18:26.959Z,96847.84
2022-10-02T14:21:05.095Z,96849.81
2022-10-02T14:23:54.119Z,96851.31
2022-10-02T14:26:33.893Z,96843.59
2022-10-02T14:29:23.472Z,96847.16
2022-10-02T14:32:43.676Z,96844.50
2022-10-02T14:35:42.733Z,96845.22
2022-10-02T14:38:51.718Z,96842.81
2022-10-02T14:41:52.049Z,96839.91
2022-10-02T14:44:48.401Z,96845.22
2022-10-02T14:47:33.223Z,96846.84
2022-10-02T14:50:23.445Z,96849.78
2022-10-02T14:53:36.582Z,96853.63
2022-10-02T14:56:44.111Z,96859.59
2022-10-02T14:59:32.038Z,96852.22
2022-10-02T15:02:31.113Z,96861.56
2022-10-02T15:05:14.167Z,96867.78
2022-10-02T15:07:43.199Z,96864.00
2022-10-02T15:10:17.766Z,96866.66
2022-10-02T15:13:01.014Z,96864.84
2022-10-02T15:15:40.338Z,96874.63
2022-10-02T15:18:21.058Z,96871.59
2022-10-02T15:21:00.471Z,96880.56
2022-10-02T15:23:45.002Z,96890.16
2022-10-02T15:26:50.348Z,96890.59
2022-10-02T15:29:37.499Z,96898.13
2022-10-02T15:32:41.438Z,96901.94
2022-10-02T15:35:28.406Z,96897.84
2022-10-02T15:38:28.102Z,96896.47
2022-10-02T15:41:32.991Z,96893.94
2022-10-02T15:44:37.203Z,96888.75
2022-10-02T15:47:26.021Z,96884.72
2022-10-02T15:50:14.442Z,96882.50
2022-10-02T15:52:55.013Z,96881.72
2022-10-02T15:55:37.357Z,96888.84
2022-10-02T15:58:24.342Z,96894.63
2022-10-02T16:01:18.580Z,96898.41
2022-10-02T16:03:52.992Z,96900.06
2022-10-02T16:06:40.028Z,96899.47
2022-10-02T16:09:38.472Z,96895.66
2022-10-02T16:12:39.780Z,96902.00
2022-10-02T16:15:22.983Z,96895.31
2022-10-02T16:18:14.118Z,96912.38
2022-10-02T16:21:09.482Z,96904.66
2022-10-02T16:24:08.019Z,96902.34
2022-10-02T16:27:09.332Z,96907.88
2022-10-02T16:29:49.980Z,96899.91
2022-10-02T16:32:31.783Z,96898.75
2022-10-02T16:35:27.232Z,96920.09
2022-10-02T16:38:00.934Z,96927.25
2022-10-02T16:40:40.426Z,96928.50
2022-10-02T16:43:43.107Z,96935.88
2022-10-02T16:46:15.818Z,96930.13
2022-10-02T16:48:54.141Z,96941.75
2022-10-02T16:51:50.462Z,96956.06
2022-10-02T16:54:28.093Z,96975.78
2022-10-02T16:57:04.490Z,96970.00
2022-10-02T16:59:43.483Z,96972.66
2022-10-02T17:02:22.237Z,96977.25
2022-10-02T17:05:03.077Z,96980.03
2022-10-02T17:07:41.606Z,96975.28
2022-10-02T17:10:23.525Z,96965.41
2022-10-02T17:12:59.649Z,96966.06
2022-10-02T17:15:38.654Z,96975.88
2022-10-02T17:18:25.210Z,96989.03
2022-10-02T17:20:58.018Z,96985.44
2022-10-02T17:23:38.133Z,96987.88
2022-10-02T17:26:13.651Z,96988.31
2022-10-02T17:28:49.662Z,96987.38
2022-10-02T17:31:35.746Z,96999.81
2022-10-02T17:34:19.973Z,97008.44
2022-10-02T17:37:07.777Z,97010.50
2022-10-02T17:39:56.580Z,97020.31
2022-10-02T17:42:42.050Z,97025.97
2022-10-02T17:45:28.378Z,97037.59
2022-10-02T17:48:27.550Z,97041.41
2022-10-02T17:51:47.601Z,97040.59
2022-10-02T17:54:58.035Z,97050.63
2022-10-02T17:57:42.812Z,97051.19
2022-10-02T18:00:18.084Z,97048.78
2022-10-02T18:03:26.331Z,97044.06
2022-10-02T18:06:17.960Z,97044.94
2022-10-02T18:09:23.227Z,97037.09
2022-10-02T18:12:34.879Z,97046.44
2022-10-02T18:15:24.656Z,97045.41
2022-10-02T18:18:23.461Z,97043.66
2022-10-02T18:21:09.466Z,97043.44
2022-10-02T18:24:10.326Z,97050.66
2022-10-02T18:27:08.660Z,97055.38
2022-10-02T18:30:03.761Z,97057.13
2022-10-02T18:33:25.125Z,97057.56
2022-10-02T18:36:12.643Z,97071.41
2022-10-02T18:38:58.650Z,97069.31
2022-10-02T18:41:56.420Z,97074.63
2022-10-02T18:44:57.936Z,97090.31
2022-10-02T18:47:45.556Z,97098.47
2022-10-02T18:50:39.564Z,97103.41
2022-10-02T18:53:34.078Z,97089.13
2022-10-02T18:56:07.986Z,97080.63
2022-10-02T18:58:57.658Z,97080.00
2022-10-02T19:02:07.185Z,97078.06
2022-10-02T19:05:08.722Z,97074.06
2022-10-02T19:07:46.136Z,97088.25
2022-10-02T19:10:29.811Z,97090.25
2022-10-02T19:13:02.499Z,97099.00
2022-10-02T19:15:34.171Z,97107.47
2022-10-02T19:18:06.614Z,97098.34
2022-10-02T19:20:52.178Z,97088.25
2022-10-02T19:23:31.649Z,97090.56
2022-10-02T19:26:06.722Z,97088.69
2022-10-02T19:28:46.569Z,97087.91
2022-10-02T19:31:24.249Z,97098.34
2022-10-02T19:33:57.930Z,97096.16
2022-10-02T19:36:30.697Z,97105.13
2022-10-02T19:39:03.349Z,97118.13
2022-10-02T19:41:35.356Z,97125.00
2022-10-02T19:44:07.475Z,97131.25
2022-10-02T19:46:43.886Z,97134.84
2022-10-02T19:49:24.026Z,97138.97
2022-10-02T19:51:53.057Z,97135.88
2022-10-02T19:54:26.124Z,97147.50
2022-10-02T19:57:00.437Z,97153.84
2022-10-02T19:59:42.956Z,97160.38
2022-10-02T20:02:22.880Z,97156.78
2022-10-02T20:04:55.989Z,97168.63
2022-10-02T20:07:27.452Z,97178.41
2022-10-02T20:10:00.066Z,97173.47
2022-10-02T20:12:33.938Z,97184.53
2022-10-02T20:15:10.912Z,97192.25
2022-10-02T20:17:38.608Z,97193.78
2022-10-02T20:20:16.547Z,97197.25
2022-10-02T20:22:50.211Z,97194.00
2022-10-02T20:25:26.505Z,97196.66
2022-10-02T20:28:02.451Z,97198.50
2022-10-02T20:30:41.654Z,97205.66
2022-10-02T20:33:19.264Z,97214.03
2022-10-02T20:35:55.528Z,97221.97
2022-10-02T20:38:30.081Z,97225.66
2022-10-02T20:41:03.145Z,97224.91
2022-10-02T20:43:38.050Z,97221.81
2022-10-02T20:46:46.306Z,97229.22
2022-10-02T20:49:59.536Z,97233.69
2022-10-02T20:53:07.270Z,97238.03
2022-10-02T20:55:44.671Z,97237.28
2022-10-02T20:59:09.611Z,97244.50
2022-10-02T21:01:46.244Z,97251.56
2022-10-02T21:05:02.965Z,97253.22
2022-10-02T21:08:04.512Z,97259.22
2022-10-02T21:10:54.100Z,97268.38
2022-10-02T21:14:09.350Z,97269.34
2022-10-02T21:17:16.015Z,97279.78
2022-10-02T21:20:49.660Z,97273.50
2022-10-02T21:23:57.871Z,97280.88
2022-10-02T21:27:06.323Z,97293.94
2022-10-02T21:30:01.450Z,97293.09
2022-10-02T21:33:12.028Z,97303.47
2022-10-02T21:35:48.850Z,97304.31
2022-10-02T21:38:58.559Z,97306.16
2022-10-02T21:42:00.369Z,97307.56
2022-10-02T21:45:25.638Z,97308.00
2022-10-02T21:48:47.100Z,97303.16
2022-10-02T21:51:53.434Z,97305.41
2022-10-02T21:55:15.557Z,97309.91
2022-10-02T21:58:30.828Z,97303.63
2022-10-02T22:01:57.175Z,97311.22
2022-10-02T22:05:20.265Z,97317.31
2022-10-02T22:07:56.993Z,97318.34
2022-10-02T22:10:36.676Z,97312.00
2022-10-02T22:13:23.736Z,97310.59
2022-10-02T22:16:06.979Z,97310.22
2022-10-02T22:18:49.832Z,97316.94
2022-10-02T22:21:49.468Z,97315.13
2022-10-02T22:24:52.826Z,97316.72
2022-10-02T22:28:05.739Z,97320.44
2022-10-02T22:30:45.648Z,97327.34
2022-10-02T22:33:33.553Z,97333.47
2022-10-02T22:37:08.481Z,97333.44
2022-10-02T22:39:41.977Z,97339.34
2022-10-02T22:42:17.870Z,97332.88
2022-10-02T22:44:53.293Z,97335.13
2022-10-02T22:47:32.158Z,97333.47
2022-10-02T22:50:07.597Z,97335.91
2022-10-02T22:52:47.532Z,97336.94
2022-10-02T22:55:26.098Z,97331.88
2022-10-02T22:58:02.385Z,97342.25
2022-10-02T23:00:38.874Z,97339.97
2022-10-02T23:03:16.054Z,97346.91
2022-10-02T23:05:51.174Z,97352.78
2022-10-02T23:08:26.630Z,97356.66
2022-10-02T23:11:01.109Z,97361.34
2022-10-02T23:13:35.491Z,97366.81
2022-10-02T23:16:12.783Z,97363.56
2022-10-02T23:18:49.662Z,97360.09
2022-10-02T23:21:32.574Z,97353.00
2022-10-02T23:24:16.161Z,97352.16
2022-10-02T23:26:51.055Z,97349.13
2022-10-02T23:29:31.759Z,97352.38
2022-10-02T23:32:11.042Z,97356.63
2022-10-02T23:34:46.096Z,97361.13
2022-10-02T23:37:22.579Z,97365.97
2022-10-02T23:39:59.238Z,97363.13
2022-10-02T23:42:34.858Z,97365.53
2022-10-02T23:45:12.174Z,97359.25
2022-10-02T23:47:58.448Z,97360.47
2022-10-02T23:50:38.336Z,97359.63
2022-10-02T23:53:42.256Z,97356.59
2022-10-02T23:56:33.954Z,97356.16
2022-10-02T23:59:21.681Z,97365.13
